createdAt,value
2023-05-17T00:00:19.455Z,39.83
2023-05-17T00:01:19.500Z,39.83
2023-05-17T00:02:19.555Z,39.84
2023-05-17T00:03:19.576Z,39.86
2023-05-17T00:04:19.651Z,39.88
2023-05-17T00:05:19.641Z,39.89
2023-05-17T00:06:19.726Z,39.88
2023-05-17T00:07:19.749Z,39.88
2023-05-17T00:08:19.765Z,39.87
2023-05-17T00:09:19.809Z,39.85
2023-05-17T00:10:19.887Z,39.86
2023-05-17T00:11:19.995Z,39.88
2023-05-17T00:12:19.962Z,39.87
2023-05-17T00:13:20.015Z,39.87
2023-05-17T00:14:20.049Z,39.86
2023-05-17T00:15:20.116Z,39.88
2023-05-17T00:16:20.161Z,39.87
2023-05-17T00:17:20.214Z,39.88
2023-05-17T00:18:20.328Z,39.90
2023-05-17T00:19:20.336Z,39.90
2023-05-17T00:20:20.299Z,39.88
2023-05-17T00:21:20.345Z,39.88
2023-05-17T00:22:20.420Z,39.86
2023-05-17T00:23:20.462Z,39.91
2023-05-17T00:24:20.480Z,39.90
2023-05-17T00:25:20.542Z,39.90
2023-05-17T00:26:20.567Z,39.88
2023-05-17T00:27:20.689Z,39.89
2023-05-17T00:28:20.663Z,39.87
2023-05-17T00:29:20.705Z,39.85
2023-05-17T00:30:20.749Z,39.84
2023-05-17T00:31:20.826Z,39.82
2023-05-17T00:32:20.886Z,39.84
2023-05-17T00:33:20.920Z,39.84
2023-05-17T00:34:20.941Z,39.83
2023-05-17T00:35:21.100Z,39.83
2023-05-17T00:36:21.009Z,39.79
2023-05-17T00:37:21.074Z,39.80
2023-05-17T00:38:21.110Z,39.80
2023-05-17T00:39:21.149Z,39.79
2023-05-17T00:40:21.224Z,39.81
2023-05-17T00:41:21.244Z,39.81
2023-05-17T00:42:21.270Z,39.82
2023-05-17T00:43:21.404Z,39.79
2023-05-17T00:44:21.382Z,39.83
2023-05-17T00:45:21.418Z,39.79
2023-05-17T00:46:21.470Z,39.75
2023-05-17T00:47:21.548Z,39.66
2023-05-17T00:48:21.813Z,39.64
2023-05-17T00:49:21.616Z,39.62
2023-05-17T00:50:21.677Z,39.57
2023-05-17T00:51:21.708Z,39.53
2023-05-17T00:52:21.788Z,39.48
2023-05-17T00:53:21.810Z,39.46
2023-05-17T00:54:21.867Z,39.41
2023-05-17T00:55:21.903Z,39.43
2023-05-17T00:56:21.935Z,39.41
2023-05-17T00:57:21.999Z,39.41
2023-05-17T00:58:22.030Z,39.39
2023-05-17T00:59:22.128Z,39.35
2023-05-17T01:00:22.143Z,39.30
2023-05-17T01:01:22.160Z,39.29
2023-05-17T01:02:22.237Z,39.29
2023-05-17T01:03:22.349Z,39.29
2023-05-17T01:04:22.356Z,39.26
2023-05-17T01:05:22.378Z,39.20
2023-05-17T01:06:22.412Z,39.20
2023-05-17T01:07:22.494Z,39.19
2023-05-17T01:08:22.543Z,39.17
2023-05-17T01:09:22.591Z,39.16
2023-05-17T01:10:22.650Z,39.18
2023-05-17T01:11:22.678Z,39.18
2023-05-17T01:12:22.746Z,39.12
2023-05-17T01:13:22.832Z,39.06
2023-05-17T01:14:22.882Z,39.06
2023-05-17T01:15:22.981Z,39.08
2023-05-17T01:16:23.003Z,39.06
2023-05-17T01:17:23.150Z,39.01
2023-05-17T01:18:23.236Z,38.95
2023-05-17T01:19:23.241Z,38.92
2023-05-17T01:20:23.290Z,38.85
2023-05-17T01:21:23.312Z,38.85
2023-05-17T01:22:23.347Z,38.82
2023-05-17T01:23:23.400Z,38.83
2023-05-17T01:24:23.464Z,38.83
2023-05-17T01:25:23.527Z,38.80
2023-05-17T01:26:23.608Z,38.80
2023-05-17T01:27:23.616Z,38.81
2023-05-17T01:28:23.703Z,38.81
2023-05-17T01:29:23.813Z,38.81
2023-05-17T01:30:23.829Z,38.77
2023-05-17T01:31:23.955Z,38.78
2023-05-17T01:32:24.032Z,38.75
2023-05-17T01:33:24.096Z,38.73
2023-05-17T01:34:24.081Z,38.72
2023-05-17T01:35:24.143Z,38.63
2023-05-17T01:36:25.152Z,38.64
2023-05-17T01:37:24.270Z,38.58
2023-05-17T01:38:24.347Z,38.53
2023-05-17T01:39:24.420Z,38.52
2023-05-17T01:40:24.463Z,38.49
2023-05-17T01:41:24.538Z,38.46
2023-05-17T01:42:24.582Z,38.45
2023-05-17T01:43:24.675Z,38.44
2023-05-17T01:44:24.720Z,38.24
2023-05-17T01:45:24.829Z,38.08
2023-05-17T01:46:24.844Z,38.08
2023-05-17T01:47:24.996Z,38.11
2023-05-17T01:48:24.997Z,38.08
2023-05-17T01:49:24.957Z,38.01
2023-05-17T01:50:25.013Z,38.02
2023-05-17T01:51:25.134Z,37.96
2023-05-17T01:52:25.039Z,37.89
2023-05-17T01:53:25.087Z,37.91
2023-05-17T01:54:25.176Z,37.86
2023-05-17T01:55:25.259Z,37.85
2023-05-17T01:56:25.283Z,37.84
2023-05-17T01:57:25.362Z,37.81
2023-05-17T01:58:25.413Z,37.76
2023-05-17T01:59:25.451Z,37.68
2023-05-17T02:00:25.445Z,37.57
2023-05-17T02:01:25.534Z,37.50
2023-05-17T02:02:25.581Z,37.43
2023-05-17T02:03:25.732Z,37.34
2023-05-17T02:04:25.736Z,37.39
2023-05-17T02:05:25.784Z,37.32
2023-05-17T02:06:25.776Z,37.27
2023-05-17T02:07:25.795Z,37.24
2023-05-17T02:08:25.805Z,37.17
2023-05-17T02:09:25.890Z,37.19
2023-05-17T02:10:26.018Z,37.20
2023-05-17T02:11:25.941Z,37.28
2023-05-17T02:12:26.018Z,37.32
2023-05-17T02:13:26.019Z,37.35
2023-05-17T02:14:26.071Z,37.36
2023-05-17T02:15:26.263Z,37.38
2023-05-17T02:16:26.135Z,37.38
2023-05-17T02:17:26.304Z,37.38
2023-05-17T02:18:26.338Z,37.41
2023-05-17T02:19:26.462Z,37.39
2023-05-17T02:20:26.376Z,37.44
2023-05-17T02:21:26.416Z,37.45
2023-05-17T02:22:26.463Z,37.49
2023-05-17T02:23:26.580Z,37.50
2023-05-17T02:24:26.633Z,37.49
2023-05-17T02:25:26.928Z,37.47
2023-05-17T02:26:26.739Z,37.50
2023-05-17T02:27:26.766Z,37.49
2023-05-17T02:28:26.829Z,37.51
2023-05-17T02:29:26.951Z,37.55
2023-05-17T02:30:27.658Z,37.53
2023-05-17T02:31:27.013Z,37.53
2023-05-17T02:32:27.046Z,37.55
2023-05-17T02:33:27.192Z,37.56
2023-05-17T02:34:27.121Z,37.57
2023-05-17T02:35:27.387Z,37.58
2023-05-17T02:36:27.233Z,37.58
2023-05-17T02:37:27.291Z,37.60
2023-05-17T02:38:27.316Z,37.61
2023-05-17T02:39:27.396Z,37.61
2023-05-17T02:40:27.395Z,37.62
2023-05-17T02:41:27.476Z,37.63
2023-05-17T02:42:27.480Z,37.62
2023-05-17T02:43:27.546Z,37.64
2023-05-17T02:44:27.679Z,37.69
2023-05-17T02:45:27.863Z,37.67
2023-05-17T02:46:28.135Z,37.68
2023-05-17T02:47:27.679Z,37.69
2023-05-17T02:48:27.738Z,37.66
2023-05-17T02:49:27.721Z,37.68
2023-05-17T02:50:27.702Z,37.67
2023-05-17T02:51:27.882Z,37.68
2023-05-17T02:52:27.801Z,37.68
2023-05-17T02:53:27.843Z,37.69
2023-05-17T02:54:27.891Z,37.69
2023-05-17T02:55:28.160Z,37.72
2023-05-17T02:56:27.949Z,37.71
2023-05-17T02:57:27.986Z,37.71
2023-05-17T02:58:28.018Z,37.70
2023-05-17T02:59:28.140Z,37.72
2023-05-17T03:00:28.103Z,37.74
2023-05-17T03:01:28.133Z,37.73
2023-05-17T03:02:28.341Z,37.74
2023-05-17T03:03:28.393Z,37.74
2023-05-17T03:04:28.270Z,37.76
2023-05-17T03:05:28.508Z,37.75
2023-05-17T03:06:28.328Z,37.75
2023-05-17T03:07:28.399Z,37.75
2023-05-17T03:08:28.381Z,37.78
2023-05-17T03:09:28.390Z,37.76
2023-05-17T03:10:28.409Z,37.78
2023-05-17T03:11:28.498Z,37.79
2023-05-17T03:12:29.628Z,37.82
2023-05-17T03:13:28.594Z,37.82
2023-05-17T03:14:29.200Z,37.83
2023-05-17T03:15:28.880Z,37.83
2023-05-17T03:16:28.744Z,37.85
2023-05-17T03:17:28.907Z,37.86
2023-05-17T03:18:28.899Z,37.84
2023-05-17T03:19:28.955Z,37.87
2023-05-17T03:20:28.950Z,37.88
2023-05-17T03:21:28.966Z,37.87
2023-05-17T03:22:29.025Z,37.85
2023-05-17T03:23:29.115Z,37.84
2023-05-17T03:24:29.079Z,37.84
2023-05-17T03:25:29.310Z,37.82
2023-05-17T03:26:29.161Z,37.85
2023-05-17T03:27:29.236Z,37.87
2023-05-17T03:28:29.245Z,37.86
2023-05-17T03:29:29.264Z,37.85
2023-05-17T03:30:29.334Z,37.89
2023-05-17T03:31:29.271Z,37.89
2023-05-17T03:32:29.344Z,37.89
2023-05-17T03:33:29.472Z,37.88
2023-05-17T03:34:29.367Z,37.87
2023-05-17T03:35:29.524Z,37.86
2023-05-17T03:36:29.438Z,37.85
2023-05-17T03:37:29.533Z,37.85
2023-05-17T03:38:29.530Z,37.83
2023-05-17T03:39:29.621Z,37.83
2023-05-17T03:40:29.552Z,37.85
2023-05-17T03:41:29.562Z,37.84
2023-05-17T03:42:29.558Z,37.84
2023-05-17T03:43:29.616Z,37.81
2023-05-17T03:44:29.652Z,37.85
2023-05-17T03:45:29.805Z,37.86
2023-05-17T03:46:29.624Z,37.86
2023-05-17T03:47:29.671Z,37.88
2023-05-17T03:48:29.688Z,37.88
2023-05-17T03:49:29.647Z,37.88
2023-05-17T03:50:29.686Z,37.92
2023-05-17T03:51:29.742Z,37.90
2023-05-17T03:52:29.754Z,37.93
2023-05-17T03:53:29.767Z,37.88
2023-05-17T03:54:29.830Z,37.93
2023-05-17T03:55:30.118Z,37.93
2023-05-17T03:56:29.901Z,37.93
2023-05-17T03:57:29.964Z,37.91
2023-05-17T03:58:29.964Z,37.91
2023-05-17T03:59:29.942Z,37.92
2023-05-17T04:00:29.970Z,37.94
2023-05-17T04:01:29.986Z,37.94
2023-05-17T04:02:29.956Z,37.93
2023-05-17T04:03:29.931Z,37.94
2023-05-17T04:04:29.984Z,37.95
2023-05-17T04:05:30.192Z,37.97
2023-05-17T04:06:29.987Z,37.95
2023-05-17T04:07:30.009Z,37.95
2023-05-17T04:08:30.005Z,37.97
2023-05-17T04:09:30.046Z,37.96
2023-05-17T04:10:30.067Z,37.96
2023-05-17T04:11:30.111Z,38.00
2023-05-17T04:12:30.086Z,38.00
2023-05-17T04:13:30.077Z,37.99
2023-05-17T04:14:30.050Z,38.00
2023-05-17T04:15:30.309Z,37.99
2023-05-17T04:16:30.080Z,38.00
2023-05-17T04:17:30.090Z,37.99
2023-05-17T04:18:30.161Z,38.01
2023-05-17T04:19:30.135Z,38.01
2023-05-17T04:20:30.094Z,38.01
2023-05-17T04:21:30.061Z,38.03
2023-05-17T04:22:30.091Z,37.99
2023-05-17T04:23:30.069Z,37.98
2023-05-17T04:24:30.090Z,37.97
2023-05-17T04:25:30.139Z,37.95
2023-05-17T04:26:30.100Z,37.96
2023-05-17T04:27:30.255Z,37.96
2023-05-17T04:28:30.122Z,37.95
2023-05-17T04:29:30.114Z,37.96
2023-05-17T04:30:30.141Z,37.99
2023-05-17T04:31:30.103Z,37.98
2023-05-17T04:32:30.153Z,37.99
2023-05-17T04:33:30.247Z,38.00
2023-05-17T04:34:30.154Z,38.01
2023-05-17T04:35:30.231Z,38.02
2023-05-17T04:36:30.178Z,38.01
2023-05-17T04:37:30.217Z,38.01
2023-05-17T04:38:30.205Z,37.99
2023-05-17T04:39:30.954Z,37.97
2023-05-17T04:40:30.186Z,37.95
2023-05-17T04:41:30.229Z,37.94
2023-05-17T04:42:30.186Z,37.97
2023-05-17T04:43:30.254Z,37.96
2023-05-17T04:44:30.186Z,37.94
2023-05-17T04:45:30.335Z,37.95
2023-05-17T04:46:30.226Z,37.95
2023-05-17T04:47:30.476Z,37.96
2023-05-17T04:48:30.411Z,37.94
2023-05-17T04:49:30.352Z,37.97
2023-05-17T04:50:30.326Z,37.95
2023-05-17T04:51:30.321Z,37.96
2023-05-17T04:52:30.362Z,37.94
2023-05-17T04:53:30.370Z,37.97
2023-05-17T04:54:30.362Z,37.95
2023-05-17T04:55:30.580Z,37.94
2023-05-17T04:56:30.330Z,37.98
2023-05-17T04:57:30.331Z,37.97
2023-05-17T04:58:30.326Z,37.97
2023-05-17T04:59:30.555Z,37.99
2023-05-17T05:00:30.312Z,37.98
2023-05-17T05:01:30.307Z,37.95
2023-05-17T05:02:30.360Z,37.97
2023-05-17T05:03:30.410Z,37.94
2023-05-17T05:04:30.363Z,37.95
2023-05-17T05:05:30.518Z,37.95
2023-05-17T05:06:30.322Z,37.92
2023-05-17T05:07:30.331Z,37.95
2023-05-17T05:08:30.313Z,37.93
2023-05-17T05:09:30.349Z,37.93
2023-05-17T05:10:31.217Z,37.95
2023-05-17T05:11:30.355Z,37.91
2023-05-17T05:12:30.365Z,37.91
2023-05-17T05:13:30.386Z,37.91
2023-05-17T05:14:30.418Z,37.91
2023-05-17T05:15:30.637Z,37.90
2023-05-17T05:16:31.198Z,37.92
2023-05-17T05:17:30.508Z,37.90
2023-05-17T05:18:30.527Z,37.90
2023-05-17T05:19:31.305Z,37.89
2023-05-17T05:20:30.451Z,37.88
2023-05-17T05:21:30.472Z,37.87
2023-05-17T05:22:30.477Z,37.87
2023-05-17T05:23:30.484Z,37.89
2023-05-17T05:24:31.203Z,37.89
2023-05-17T05:25:30.748Z,37.90
2023-05-17T05:26:30.490Z,37.93
2023-05-17T05:27:30.520Z,37.94
2023-05-17T05:28:30.492Z,37.95
2023-05-17T05:29:30.503Z,37.97
2023-05-17T05:30:30.525Z,37.98
2023-05-17T05:31:30.706Z,38.00
2023-05-17T05:32:30.684Z,38.04
2023-05-17T05:33:30.659Z,38.04
2023-05-17T05:34:30.651Z,38.04
2023-05-17T05:35:30.999Z,38.08
2023-05-17T05:36:30.720Z,38.10
2023-05-17T05:37:30.758Z,38.20
2023-05-17T05:38:30.797Z,38.28
2023-05-17T05:39:30.866Z,38.29
2023-05-17T05:40:31.090Z,38.34
2023-05-17T05:41:30.978Z,38.44
2023-05-17T05:42:31.055Z,38.90
2023-05-17T05:43:31.088Z,38.81
2023-05-17T05:44:31.178Z,39.18
2023-05-17T05:45:31.258Z,39.08
2023-05-17T05:46:31.284Z,39.17
2023-05-17T05:47:31.440Z,39.20
2023-05-17T05:48:31.457Z,39.35
2023-05-17T05:49:32.142Z,39.46
2023-05-17T05:50:31.659Z,39.81
2023-05-17T05:51:31.528Z,39.71
2023-05-17T05:52:31.614Z,39.81
2023-05-17T05:53:31.615Z,39.81
2023-05-17T05:54:31.649Z,39.80
2023-05-17T05:55:31.709Z,39.74
2023-05-17T05:56:31.734Z,40.11
2023-05-17T05:57:31.761Z,40.06
2023-05-17T05:58:31.863Z,40.81
2023-05-17T05:59:31.884Z,40.50
2023-05-17T06:00:32.029Z,40.45
2023-05-17T06:01:31.956Z,40.37
2023-05-17T06:02:32.008Z,40.58
2023-05-17T06:03:32.079Z,40.60
2023-05-17T06:04:41.279Z,40.63
2023-05-17T06:05:33.249Z,40.87
2023-05-17T06:06:32.094Z,41.04
2023-05-17T06:07:32.001Z,41.19
2023-05-17T06:08:32.018Z,41.20
2023-05-17T06:09:32.017Z,41.19
2023-05-17T06:10:32.124Z,41.22
2023-05-17T06:11:31.996Z,41.40
2023-05-17T06:12:31.970Z,41.47
2023-05-17T06:13:31.987Z,41.53
2023-05-17T06:14:31.953Z,41.64
2023-05-17T06:15:31.954Z,41.73
2023-05-17T06:16:31.945Z,41.79
2023-05-17T06:17:31.962Z,41.76
2023-05-17T06:18:32.011Z,41.84
2023-05-17T06:19:32.321Z,41.87
2023-05-17T06:20:32.046Z,41.93
2023-05-17T06:21:31.944Z,41.96
2023-05-17T06:22:31.922Z,42.03
2023-05-17T06:23:31.928Z,42.03
2023-05-17T06:24:33.190Z,42.15
2023-05-17T06:25:31.890Z,42.16
2023-05-17T06:26:31.892Z,42.18
2023-05-17T06:27:31.956Z,42.08
2023-05-17T06:28:32.017Z,42.28
2023-05-17T06:29:32.070Z,42.27
2023-05-17T06:30:32.220Z,42.34
2023-05-17T06:31:32.184Z,42.38
2023-05-17T06:32:32.251Z,42.40
2023-05-17T06:33:32.302Z,42.52
2023-05-17T06:34:32.305Z,42.57
2023-05-17T06:35:40.802Z,42.61
2023-05-17T06:36:33.883Z,42.69
2023-05-17T06:37:32.402Z,42.70
2023-05-17T06:38:32.334Z,42.73
2023-05-17T06:39:32.385Z,42.81
2023-05-17T06:40:32.525Z,42.87
2023-05-17T06:41:32.454Z,42.92
2023-05-17T06:42:32.506Z,42.96
2023-05-17T06:43:32.536Z,42.99
2023-05-17T06:44:33.243Z,43.00
2023-05-17T06:45:32.620Z,43.06
2023-05-17T06:46:32.646Z,43.18
2023-05-17T06:47:32.816Z,42.94
2023-05-17T06:48:32.880Z,43.14
2023-05-17T06:49:32.762Z,43.09
2023-05-17T06:50:32.921Z,43.34
2023-05-17T06:51:32.869Z,43.40
2023-05-17T06:52:32.872Z,43.26
2023-05-17T06:53:32.837Z,43.46
2023-05-17T06:54:33.729Z,43.88
2023-05-17T06:55:32.851Z,43.82
2023-05-17T06:56:32.905Z,43.76
2023-05-17T06:57:32.884Z,44.08
2023-05-17T06:58:32.889Z,44.14
2023-05-17T06:59:32.907Z,43.90
2023-05-17T07:00:33.264Z,42.18
2023-05-17T07:01:32.915Z,42.15
2023-05-17T07:02:34.596Z,43.02
2023-05-17T07:03:33.027Z,42.78
2023-05-17T07:04:32.991Z,43.04
2023-05-17T07:05:33.372Z,42.96
2023-05-17T07:06:32.961Z,42.87
2023-05-17T07:07:33.112Z,42.67
2023-05-17T07:08:32.981Z,42.30
2023-05-17T07:09:33.001Z,42.35
2023-05-17T07:10:33.009Z,42.35
2023-05-17T07:11:33.064Z,42.41
2023-05-17T07:12:33.019Z,42.40
2023-05-17T07:13:33.016Z,42.12
2023-05-17T07:14:33.069Z,41.98
2023-05-17T07:15:33.018Z,41.84
2023-05-17T07:16:33.006Z,41.37
2023-05-17T07:17:33.034Z,41.65
2023-05-17T07:18:33.229Z,41.61
2023-05-17T07:19:33.147Z,41.42
2023-05-17T07:20:33.044Z,41.55
2023-05-17T07:21:32.995Z,41.74
2023-05-17T07:22:32.998Z,41.61
2023-05-17T07:23:33.452Z,41.28
2023-05-17T07:24:33.007Z,41.11
2023-05-17T07:25:33.005Z,40.96
2023-05-17T07:26:33.031Z,40.97
2023-05-17T07:27:33.743Z,40.80
2023-05-17T07:28:33.085Z,40.79
2023-05-17T07:30:09.713Z,40.63
2023-05-17T07:31:09.686Z,40.53
2023-05-17T07:32:09.659Z,40.48
2023-05-17T07:33:09.721Z,40.36
2023-05-17T07:34:09.703Z,40.02
2023-05-17T07:35:09.637Z,40.48
2023-05-17T07:36:09.678Z,40.68
2023-05-17T07:37:09.649Z,40.67
2023-05-17T07:38:09.628Z,40.29
2023-05-17T07:39:09.752Z,40.35
2023-05-17T07:40:09.644Z,40.43
2023-05-17T07:41:09.729Z,40.55
2023-05-17T07:42:09.590Z,40.87
2023-05-17T07:43:09.657Z,40.93
2023-05-17T07:44:09.599Z,41.21
2023-05-17T07:45:09.593Z,41.09
2023-05-17T07:46:09.597Z,41.15
2023-05-17T07:47:09.625Z,41.27
2023-05-17T07:48:09.636Z,41.64
2023-05-17T07:49:09.727Z,41.98
2023-05-17T07:50:09.581Z,42.54
2023-05-17T07:51:09.539Z,42.56
2023-05-17T07:52:09.582Z,42.60
2023-05-17T07:53:09.546Z,42.51
2023-05-17T07:54:09.562Z,42.66
2023-05-17T07:55:09.765Z,42.79
2023-05-17T07:56:09.526Z,42.81
2023-05-17T07:57:09.545Z,42.88
2023-05-17T07:58:09.524Z,43.06
2023-05-17T07:59:10.399Z,42.93
2023-05-17T08:00:09.540Z,43.08
2023-05-17T08:01:09.578Z,42.98
2023-05-17T08:02:09.615Z,43.01
2023-05-17T08:03:09.738Z,42.98
2023-05-17T08:04:09.805Z,43.00
2023-05-17T08:05:09.783Z,43.06
2023-05-17T08:06:09.881Z,43.04
2023-05-17T08:07:09.850Z,43.15
2023-05-17T08:08:09.908Z,43.27
2023-05-17T08:09:09.914Z,43.36
2023-05-17T08:10:09.928Z,43.50
2023-05-17T08:11:09.952Z,43.49
2023-05-17T08:12:10.002Z,43.62
2023-05-17T08:13:10.044Z,43.65
2023-05-17T08:14:10.094Z,43.86
2023-05-17T08:15:10.115Z,43.94
2023-05-17T08:16:14.039Z,43.94
2023-05-17T08:17:10.139Z,44.01
2023-05-17T08:18:10.250Z,44.04
2023-05-17T08:19:10.271Z,44.11
2023-05-17T08:20:10.142Z,44.20
2023-05-17T08:21:10.145Z,44.22
2023-05-17T08:22:10.115Z,44.25
2023-05-17T08:23:10.122Z,44.28
2023-05-17T08:24:10.090Z,44.42
2023-05-17T08:25:10.109Z,44.58
2023-05-17T08:26:10.094Z,44.56
2023-05-17T08:27:10.087Z,44.62
2023-05-17T08:28:10.072Z,44.75
2023-05-17T08:29:10.046Z,45.00
2023-05-17T08:30:14.719Z,44.79
2023-05-17T08:31:11.041Z,44.73
2023-05-17T08:32:10.095Z,44.84
2023-05-17T08:33:10.071Z,45.15
2023-05-17T08:34:10.101Z,44.52
2023-05-17T08:35:10.030Z,44.43
2023-05-17T08:36:10.014Z,43.93
2023-05-17T08:37:10.070Z,44.17
2023-05-17T08:38:10.009Z,43.80
2023-05-17T08:39:10.135Z,44.22
2023-05-17T08:40:10.084Z,44.17
2023-05-17T08:41:09.978Z,43.16
2023-05-17T08:42:09.994Z,42.43
2023-05-17T08:43:10.169Z,43.18
2023-05-17T08:44:09.994Z,43.11
2023-05-17T08:45:09.969Z,43.36
2023-05-17T08:46:09.949Z,43.35
2023-05-17T08:47:09.975Z,43.46
2023-05-17T08:48:10.054Z,43.33
2023-05-17T08:49:10.029Z,43.61
2023-05-17T08:50:10.010Z,43.97
2023-05-17T08:51:10.055Z,43.91
2023-05-17T08:52:10.112Z,44.07
2023-05-17T08:53:10.206Z,43.67
2023-05-17T08:54:10.142Z,43.48
2023-05-17T08:55:10.152Z,42.57
2023-05-17T08:56:10.210Z,42.33
2023-05-17T08:57:10.239Z,41.29
2023-05-17T08:58:10.280Z,40.88
2023-05-17T08:59:10.341Z,41.43
2023-05-17T09:00:10.340Z,41.23
2023-05-17T09:01:10.372Z,40.97
2023-05-17T09:02:10.411Z,40.97
2023-05-17T09:03:10.469Z,41.34
2023-05-17T09:04:10.485Z,42.19
2023-05-17T09:05:10.754Z,42.10
2023-05-17T09:06:10.529Z,42.24
2023-05-17T09:07:10.556Z,42.57
2023-05-17T09:08:10.555Z,42.84
2023-05-17T09:09:10.582Z,42.91
2023-05-17T09:10:10.604Z,42.99
2023-05-17T09:11:10.605Z,43.05
2023-05-17T09:12:10.624Z,43.30
2023-05-17T09:13:10.634Z,43.32
2023-05-17T09:14:10.622Z,43.70
2023-05-17T09:15:10.758Z,42.67
2023-05-17T09:16:10.634Z,42.03
2023-05-17T09:17:10.628Z,41.34
2023-05-17T09:18:10.751Z,42.01
2023-05-17T09:19:10.679Z,41.70
2023-05-17T09:20:10.690Z,41.34
2023-05-17T09:21:10.705Z,42.10
2023-05-17T09:22:10.698Z,41.65
2023-05-17T09:23:10.708Z,42.03
2023-05-17T09:24:10.714Z,41.98
2023-05-17T09:25:10.762Z,42.41
2023-05-17T09:26:10.722Z,43.02
2023-05-17T09:27:10.728Z,42.73
2023-05-17T09:28:10.712Z,42.70
2023-05-17T09:29:10.772Z,43.04
2023-05-17T09:30:10.771Z,43.02
2023-05-17T09:31:10.824Z,43.28
2023-05-17T09:32:10.829Z,43.55
2023-05-17T09:33:11.139Z,43.57
2023-05-17T09:34:11.015Z,43.68
2023-05-17T09:35:10.991Z,43.66
2023-05-17T09:36:11.056Z,44.06
2023-05-17T09:37:11.151Z,43.99
2023-05-17T09:38:11.190Z,44.16
2023-05-17T09:39:11.253Z,44.06
2023-05-17T09:40:11.305Z,44.21
2023-05-17T09:41:11.357Z,44.21
2023-05-17T09:42:11.442Z,44.13
2023-05-17T09:43:11.505Z,44.08
2023-05-17T09:44:11.625Z,43.66
2023-05-17T09:45:11.595Z,42.93
2023-05-17T09:46:11.679Z,42.19
2023-05-17T09:47:11.790Z,43.40
2023-05-17T09:48:11.829Z,42.17
2023-05-17T09:49:11.854Z,41.18
2023-05-17T09:50:11.879Z,40.15
2023-05-17T09:51:11.856Z,39.60
2023-05-17T09:52:11.864Z,38.96
2023-05-17T09:53:11.895Z,38.86
2023-05-17T09:54:11.940Z,38.50
2023-05-17T09:55:11.876Z,38.13
2023-05-17T09:56:11.934Z,37.77
2023-05-17T09:57:11.947Z,38.08
2023-05-17T09:58:12.008Z,37.38
2023-05-17T09:59:11.965Z,37.32
2023-05-17T10:00:12.113Z,37.29
2023-05-17T10:01:12.105Z,37.24
2023-05-17T10:02:12.053Z,37.16
2023-05-17T10:03:12.137Z,36.80
2023-05-17T10:04:12.321Z,36.43
2023-05-17T10:05:12.258Z,36.57
2023-05-17T10:06:16.578Z,36.51
2023-05-17T10:07:13.208Z,36.53
2023-05-17T10:08:12.251Z,36.14
2023-05-17T10:09:12.213Z,35.70
2023-05-17T10:10:12.192Z,35.92
2023-05-17T10:11:12.186Z,35.84
2023-05-17T10:12:12.257Z,35.40
2023-05-17T10:13:12.171Z,35.17
2023-05-17T10:14:12.235Z,35.34
2023-05-17T10:15:12.170Z,35.21
2023-05-17T10:16:12.145Z,34.98
2023-05-17T10:17:12.135Z,34.89
2023-05-17T10:18:12.302Z,35.31
2023-05-17T10:19:12.308Z,34.92
2023-05-17T10:20:12.370Z,34.84
2023-05-17T10:21:12.371Z,34.93
2023-05-17T10:23:13.392Z,34.82
2023-05-17T10:24:12.411Z,35.04
2023-05-17T10:25:12.397Z,35.13
2023-05-17T10:26:12.374Z,35.19
2023-05-17T10:27:12.365Z,35.13
2023-05-17T10:28:12.385Z,35.18
2023-05-17T10:29:12.396Z,35.69
2023-05-17T10:30:12.362Z,36.44
2023-05-17T10:31:12.326Z,36.61
2023-05-17T10:32:12.365Z,36.73
2023-05-17T10:33:20.624Z,36.62
2023-05-17T10:34:12.486Z,36.54
2023-05-17T10:35:12.468Z,36.68
2023-05-17T10:36:12.412Z,37.07
2023-05-17T10:37:12.388Z,37.04
2023-05-17T10:38:12.406Z,37.30
2023-05-17T10:39:12.419Z,37.30
2023-05-17T10:40:12.485Z,37.65
2023-05-17T10:41:12.541Z,37.63
2023-05-17T10:42:15.095Z,37.72
2023-05-17T10:43:12.584Z,37.72
2023-05-17T10:44:12.552Z,37.68
2023-05-17T10:45:12.560Z,37.79
2023-05-17T10:46:12.537Z,37.85
2023-05-17T10:47:12.519Z,38.04
2023-05-17T10:48:12.627Z,38.10
2023-05-17T10:49:12.561Z,38.16
2023-05-17T10:50:12.515Z,38.19
2023-05-17T10:51:12.525Z,38.27
2023-05-17T10:52:12.510Z,38.35
2023-05-17T10:53:12.511Z,38.38
2023-05-17T10:54:12.521Z,38.42
2023-05-17T10:55:12.491Z,38.49
2023-05-17T10:56:12.464Z,38.53
2023-05-17T10:57:12.465Z,38.56
2023-05-17T10:58:12.484Z,38.58
2023-05-17T10:59:12.490Z,38.64
2023-05-17T11:00:12.466Z,38.67
2023-05-17T11:01:12.461Z,38.68
2023-05-17T11:02:12.442Z,38.70
2023-05-17T11:03:12.462Z,38.72
2023-05-17T11:04:12.441Z,38.74
2023-05-17T11:05:12.576Z,38.75
2023-05-17T11:06:19.365Z,38.79
2023-05-17T11:07:13.383Z,38.80
2023-05-17T11:08:12.411Z,38.83
2023-05-17T11:09:12.394Z,38.85
2023-05-17T11:10:12.394Z,38.83
2023-05-17T11:11:12.389Z,38.87
2023-05-17T11:12:12.353Z,38.87
2023-05-17T11:13:12.402Z,38.87
2023-05-17T11:14:12.355Z,38.89
2023-05-17T11:15:12.340Z,38.90
2023-05-17T11:16:12.350Z,38.90
2023-05-17T11:17:12.343Z,38.89
2023-05-17T11:18:22.637Z,38.95
2023-05-17T11:19:13.505Z,38.89
2023-05-17T11:20:16.231Z,38.91
2023-05-17T11:21:12.428Z,38.96
2023-05-17T11:22:12.404Z,38.96
2023-05-17T11:23:12.356Z,38.98
2023-05-17T11:24:12.370Z,38.96
2023-05-17T11:25:12.346Z,38.97
2023-05-17T11:26:16.234Z,38.96
2023-05-17T11:27:12.355Z,38.97
2023-05-17T11:28:12.348Z,38.97
2023-05-17T11:29:12.359Z,38.96
2023-05-17T11:30:12.323Z,38.96
2023-05-17T11:31:12.347Z,39.00
2023-05-17T11:32:12.345Z,38.97
2023-05-17T11:33:24.907Z,38.97
2023-05-17T11:34:13.453Z,39.03
2023-05-17T11:35:12.339Z,39.03
2023-05-17T11:36:12.283Z,39.04
2023-05-17T11:37:12.284Z,39.07
2023-05-17T11:38:12.279Z,39.21
2023-05-17T11:39:12.294Z,39.26
2023-05-17T11:40:12.331Z,39.29
2023-05-17T11:41:19.580Z,39.30
2023-05-17T11:42:13.277Z,39.29
2023-05-17T11:43:12.230Z,39.27
2023-05-17T11:44:12.265Z,39.28
2023-05-17T11:45:12.233Z,39.29
2023-05-17T11:46:12.231Z,39.26
2023-05-17T11:47:12.261Z,39.29
2023-05-17T11:48:12.278Z,39.31
2023-05-17T11:49:20.225Z,39.27
2023-05-17T11:50:13.236Z,39.29
2023-05-17T11:51:12.225Z,39.30
2023-05-17T11:52:12.165Z,39.46
2023-05-17T11:53:12.173Z,39.47
2023-05-17T11:54:12.177Z,39.36
2023-05-17T11:55:12.191Z,39.27
2023-05-17T11:56:12.146Z,39.34
2023-05-17T11:57:12.151Z,39.35
2023-05-17T11:58:12.206Z,39.35
2023-05-17T11:59:12.309Z,39.38
2023-05-17T12:00:12.337Z,39.41
2023-05-17T12:01:12.392Z,39.35
2023-05-17T12:02:12.448Z,39.40
2023-05-17T12:03:12.567Z,39.52
2023-05-17T12:04:13.091Z,39.52
2023-05-17T12:05:12.660Z,39.47
2023-05-17T12:06:12.915Z,39.40
2023-05-17T12:07:12.743Z,39.57
2023-05-17T12:08:12.813Z,39.61
2023-05-17T12:09:12.987Z,39.57
2023-05-17T12:10:12.959Z,39.52
2023-05-17T12:11:12.993Z,39.51
2023-05-17T12:12:13.079Z,39.52
2023-05-17T12:13:13.137Z,39.54
2023-05-17T12:14:13.210Z,39.56
2023-05-17T12:15:13.250Z,39.63
2023-05-17T12:16:14.601Z,39.66
2023-05-17T12:17:13.312Z,39.78
2023-05-17T12:18:13.375Z,40.19
2023-05-17T12:19:13.363Z,39.91
2023-05-17T12:20:13.399Z,39.84
2023-05-17T12:21:13.284Z,39.85
2023-05-17T12:22:13.362Z,39.82
2023-05-17T12:23:13.323Z,40.04
2023-05-17T12:24:13.299Z,39.99
2023-05-17T12:25:13.258Z,39.92
2023-05-17T12:26:13.234Z,40.02
2023-05-17T12:27:13.245Z,40.06
2023-05-17T12:28:13.230Z,40.07
2023-05-17T12:29:13.243Z,40.08
2023-05-17T12:30:13.240Z,40.11
2023-05-17T12:31:13.223Z,40.04
2023-05-17T12:32:13.207Z,40.03
2023-05-17T12:33:13.281Z,40.02
2023-05-17T12:34:13.311Z,40.03
2023-05-17T12:35:13.192Z,40.04
2023-05-17T12:36:13.214Z,39.97
2023-05-17T12:37:13.175Z,39.97
2023-05-17T12:38:13.191Z,40.01
2023-05-17T12:39:13.184Z,39.96
2023-05-17T12:40:13.263Z,39.99
2023-05-17T12:41:13.133Z,39.94
2023-05-17T12:42:13.156Z,39.91
2023-05-17T12:43:13.209Z,39.88
2023-05-17T12:44:16.293Z,39.88
2023-05-17T12:45:13.185Z,39.90
2023-05-17T12:46:13.121Z,39.88
2023-05-17T12:47:13.142Z,39.78
2023-05-17T12:48:13.159Z,39.77
2023-05-17T12:49:13.147Z,39.81
2023-05-17T12:50:13.124Z,39.81
2023-05-17T12:51:13.112Z,39.80
2023-05-17T12:52:13.106Z,39.73
2023-05-17T12:53:13.073Z,39.74
2023-05-17T12:54:13.093Z,39.75